sensor_id;sensor_type;location;lat;lon;timestamp;P1;durP1;ratioP1;P2;durP2;ratioP2
40072;SDS011;25774;52.256;9.356;2024-03-23T00:55:26;16.38;;;6.32;;
40072;SDS011;25774;52.256;9.356;2024-03-23T00:57:54;18.20;;;7.07;;
40072;SDS011;25774;52.256;9.356;2024-03-23T01:00:21;17.98;;;7.00;;
40072;SDS011;25774;52.256;9.356;2024-03-23T01:02:46;20.15;;;6.85;;
40072;SDS011;25774;52.256;9.356;2024-03-23T01:05:12;19.47;;;6.53;;
40072;SDS011;25774;52.256;9.356;2024-03-23T01:07:38;17.85;;;6.43;;
40072;SDS011;25774;52.256;9.356;2024-03-23T01:10:05;17.37;;;7.17;;
40072;SDS011;25774;52.256;9.356;2024-03-23T01:12:30;17.10;;;6.15;;
40072;SDS011;25774;52.256;9.356;2024-03-23T01:14:57;14.10;;;5.83;;
40072;SDS011;25774;52.256;9.356;2024-03-23T01:17:23;22.33;;;6.80;;
40072;SDS011;25774;52.256;9.356;2024-03-23T01:19:50;23.35;;;6.80;;
40072;SDS011;25774;52.256;9.356;2024-03-23T01:22:16;17.08;;;5.55;;
40072;SDS011;25774;52.256;9.356;2024-03-23T01:24:42;15.40;;;6.43;;
40072;SDS011;25774;52.256;9.356;2024-03-23T01:27:08;20.57;;;5.57;;
40072;SDS011;25774;52.256;9.356;2024-03-23T01:29:35;16.67;;;4.35;;
40072;SDS011;25774;52.256;9.356;2024-03-23T01:32:02;21.20;;;5.45;;
40072;SDS011;25774;52.256;9.356;2024-03-23T01:34:27;18.65;;;4.90;;
40072;SDS011;25774;52.256;9.356;2024-03-23T01:36:53;15.20;;;5.37;;
40072;SDS011;25774;52.256;9.356;2024-03-23T01:39:18;13.67;;;4.97;;
40072;SDS011;25774;52.256;9.356;2024-03-23T01:41:43;16.03;;;5.37;;
40072;SDS011;25774;52.256;9.356;2024-03-23T01:44:09;16.33;;;4.77;;
40072;SDS011;25774;52.256;9.356;2024-03-23T01:46:37;19.53;;;6.27;;
40072;SDS011;25774;52.256;9.356;2024-03-23T01:49:06;14.45;;;4.63;;
40072;SDS011;25774;52.256;9.356;2024-03-23T01:51:31;12.82;;;4.65;;
40072;SDS011;25774;52.256;9.356;2024-03-23T01:53:57;17.00;;;4.15;;
40072;SDS011;25774;52.256;9.356;2024-03-23T01:56:23;11.30;;;4.57;;
40072;SDS011;25774;52.256;9.356;2024-03-23T01:58:49;9.82;;;4.28;;
40072;SDS011;25774;52.256;9.356;2024-03-23T02:01:16;17.30;;;4.35;;
40072;SDS011;25774;52.256;9.356;2024-03-23T02:03:41;18.80;;;4.33;;
40072;SDS011;25774;52.256;9.356;2024-03-23T02:06:08;17.17;;;5.23;;
40072;SDS011;25774;52.256;9.356;2024-03-23T02:08:33;12.02;;;5.15;;
40072;SDS011;25774;52.256;9.356;2024-03-23T02:11:00;13.52;;;4.93;;
40072;SDS011;25774;52.256;9.356;2024-03-23T02:13:25;13.10;;;5.05;;
40072;SDS011;25774;52.256;9.356;2024-03-23T02:15:50;18.23;;;5.27;;
40072;SDS011;25774;52.256;9.356;2024-03-23T02:18:16;13.20;;;4.97;;
40072;SDS011;25774;52.256;9.356;2024-03-23T02:20:41;14.33;;;5.33;;
40072;SDS011;25774;52.256;9.356;2024-03-23T02:23:16;14.67;;;4.80;;
40072;SDS011;25774;52.256;9.356;2024-03-23T02:25:43;12.90;;;4.60;;
40072;SDS011;25774;52.256;9.356;2024-03-23T02:28:08;14.13;;;5.13;;
40072;SDS011;25774;52.256;9.356;2024-03-23T02:30:33;21.27;;;6.20;;
40072;SDS011;25774;52.256;9.356;2024-03-23T02:32:58;17.20;;;6.20;;
40072;SDS011;25774;52.256;9.356;2024-03-23T02:35:24;16.37;;;4.93;;
40072;SDS011;25774;52.256;9.356;2024-03-23T02:37:50;14.77;;;4.27;;
40072;SDS011;25774;52.256;9.356;2024-03-23T02:40:16;25.35;;;4.88;;
40072;SDS011;25774;52.256;9.356;2024-03-23T02:45:08;13.85;;;4.55;;
40072;SDS011;25774;52.256;9.356;2024-03-23T02:47:33;17.00;;;4.80;;
40072;SDS011;25774;52.256;9.356;2024-03-23T02:49:59;15.33;;;4.70;;
40072;SDS011;25774;52.256;9.356;2024-03-23T02:52:24;17.20;;;5.25;;
40072;SDS011;25774;52.256;9.356;2024-03-23T02:54:50;17.83;;;4.83;;
40072;SDS011;25774;52.256;9.356;2024-03-23T02:57:15;18.23;;;4.87;;
40072;SDS011;25774;52.256;9.356;2024-03-23T02:59:42;15.93;;;5.10;;
40072;SDS011;25774;52.256;9.356;2024-03-23T03:02:07;13.27;;;4.43;;
40072;SDS011;25774;52.256;9.356;2024-03-23T03:04:32;15.13;;;5.40;;
40072;SDS011;25774;52.256;9.356;2024-03-23T03:06:58;12.77;;;4.63;;
40072;SDS011;25774;52.256;9.356;2024-03-23T03:09:23;15.53;;;5.47;;
40072;SDS011;25774;52.256;9.356;2024-03-23T03:11:50;16.60;;;5.33;;
40072;SDS011;25774;52.256;9.356;2024-03-23T03:14:17;20.02;;;5.28;;
40072;SDS011;25774;52.256;9.356;2024-03-23T03:19:08;19.73;;;5.25;;
40072;SDS011;25774;52.256;9.356;2024-03-23T03:21:35;17.50;;;4.88;;
40072;SDS011;25774;52.256;9.356;2024-03-23T03:24:01;26.83;;;7.57;;
40072;SDS011;25774;52.256;9.356;2024-03-23T03:26:27;16.30;;;5.25;;
40072;SDS011;25774;52.256;9.356;2024-03-23T03:28:52;25.50;;;6.00;;
40072;SDS011;25774;52.256;9.356;2024-03-23T03:31:18;14.73;;;5.33;;
40072;SDS011;25774;52.256;9.356;2024-03-23T03:33:43;18.23;;;5.20;;
40072;SDS011;25774;52.256;9.356;2024-03-23T03:36:10;15.20;;;4.30;;
40072;SDS011;25774;52.256;9.356;2024-03-23T03:38:36;14.63;;;4.32;;
40072;SDS011;25774;52.256;9.356;2024-03-23T03:43:28;12.97;;;4.30;;
40072;SDS011;25774;52.256;9.356;2024-03-23T03:45:53;14.93;;;4.40;;
40072;SDS011;25774;52.256;9.356;2024-03-23T03:48:19;17.20;;;5.50;;
40072;SDS011;25774;52.256;9.356;2024-03-23T03:50:44;12.00;;;5.00;;
40072;SDS011;25774;52.256;9.356;2024-03-23T03:53:09;18.47;;;5.03;;
40072;SDS011;25774;52.256;9.356;2024-03-23T03:55:34;16.83;;;4.80;;
40072;SDS011;25774;52.256;9.356;2024-03-23T03:57:59;21.33;;;6.83;;
40072;SDS011;25774;52.256;9.356;2024-03-23T04:00:26;15.33;;;5.13;;
40072;SDS011;25774;52.256;9.356;2024-03-23T04:02:51;15.55;;;4.55;;
40072;SDS011;25774;52.256;9.356;2024-03-23T04:05:16;14.93;;;4.70;;
40072;SDS011;25774;52.256;9.356;2024-03-23T04:07:42;17.53;;;4.53;;
40072;SDS011;25774;52.256;9.356;2024-03-23T04:10:07;14.37;;;4.27;;
40072;SDS011;25774;52.256;9.356;2024-03-23T04:12:33;14.77;;;4.32;;
40072;SDS011;25774;52.256;9.356;2024-03-23T04:14:58;10.73;;;4.10;;
40072;SDS011;25774;52.256;9.356;2024-03-23T04:17:24;15.07;;;5.50;;
40072;SDS011;25774;52.256;9.356;2024-03-23T04:22:17;20.05;;;5.30;;
40072;SDS011;25774;52.256;9.356;2024-03-23T04:24:43;13.13;;;4.85;;
40072;SDS011;25774;52.256;9.356;2024-03-23T04:27:08;19.57;;;5.33;;
40072;SDS011;25774;52.256;9.356;2024-03-23T04:29:33;17.10;;;6.33;;
40072;SDS011;25774;52.256;9.356;2024-03-23T04:31:58;14.17;;;5.57;;
40072;SDS011;25774;52.256;9.356;2024-03-23T04:34:23;12.10;;;5.33;;
40072;SDS011;25774;52.256;9.356;2024-03-23T04:36:50;13.27;;;5.00;;
40072;SDS011;25774;52.256;9.356;2024-03-23T04:39:15;11.85;;;4.80;;
40072;SDS011;25774;52.256;9.356;2024-03-23T04:41:40;11.10;;;4.47;;
40072;SDS011;25774;52.256;9.356;2024-03-23T04:44:06;14.33;;;4.93;;
40072;SDS011;25774;52.256;9.356;2024-03-23T04:48:58;11.30;;;3.70;;
40072;SDS011;25774;52.256;9.356;2024-03-23T04:51:23;16.33;;;3.60;;
40072;SDS011;25774;52.256;9.356;2024-03-23T04:53:50;15.43;;;3.40;;
40072;SDS011;25774;52.256;9.356;2024-03-23T04:56:16;13.05;;;3.22;;
40072;SDS011;25774;52.256;9.356;2024-03-23T04:58:42;11.85;;;2.90;;
40072;SDS011;25774;52.256;9.356;2024-03-23T05:01:07;14.80;;;3.50;;
40072;SDS011;25774;52.256;9.356;2024-03-23T05:03:32;13.10;;;3.03;;
40072;SDS011;25774;52.256;9.356;2024-03-23T05:05:58;17.37;;;3.00;;
40072;SDS011;25774;52.256;9.356;2024-03-23T05:08:24;11.73;;;3.10;;
40072;SDS011;25774;52.256;9.356;2024-03-23T05:10:49;9.68;;;2.67;;
40072;SDS011;25774;52.256;9.356;2024-03-23T05:13:15;12.27;;;3.17;;
40072;SDS011;25774;52.256;9.356;2024-03-23T05:15:40;18.33;;;3.83;;
40072;SDS011;25774;52.256;9.356;2024-03-23T05:18:05;13.00;;;3.23;;
40072;SDS011;25774;52.256;9.356;2024-03-23T05:20:31;14.57;;;3.47;;
40072;SDS011;25774;52.256;9.356;2024-03-23T05:22:56;8.82;;;2.67;;
40072;SDS011;25774;52.256;9.356;2024-03-23T05:25:21;13.27;;;3.33;;
40072;SDS011;25774;52.256;9.356;2024-03-23T05:27:47;11.73;;;3.13;;
40072;SDS011;25774;52.256;9.356;2024-03-23T05:30:13;10.27;;;3.37;;
40072;SDS011;25774;52.256;9.356;2024-03-23T05:32:39;16.77;;;4.73;;
40072;SDS011;25774;52.256;9.356;2024-03-23T05:35:07;11.60;;;3.63;;
40072;SDS011;25774;52.256;9.356;2024-03-23T05:37:33;12.20;;;3.22;;
40072;SDS011;25774;52.256;9.356;2024-03-23T05:40:02;10.25;;;3.20;;
40072;SDS011;25774;52.256;9.356;2024-03-23T05:42:29;14.30;;;3.08;;
40072;SDS011;25774;52.256;9.356;2024-03-23T05:44:57;12.40;;;3.15;;
40072;SDS011;25774;52.256;9.356;2024-03-23T05:47:22;20.20;;;3.85;;
40072;SDS011;25774;52.256;9.356;2024-03-23T05:49:47;17.37;;;3.93;;
40072;SDS011;25774;52.256;9.356;2024-03-23T05:52:12;20.30;;;4.57;;
40072;SDS011;25774;52.256;9.356;2024-03-23T05:54:38;19.03;;;3.87;;
40072;SDS011;25774;52.256;9.356;2024-03-23T05:57:03;12.57;;;3.67;;
40072;SDS011;25774;52.256;9.356;2024-03-23T05:59:29;11.27;;;3.75;;
40072;SDS011;25774;52.256;9.356;2024-03-23T06:01:54;17.23;;;5.07;;
40072;SDS011;25774;52.256;9.356;2024-03-23T06:04:19;22.97;;;5.33;;
40072;SDS011;25774;52.256;9.356;2024-03-23T06:06:45;16.50;;;4.87;;
40072;SDS011;25774;52.256;9.356;2024-03-23T06:09:11;25.35;;;6.78;;
40072;SDS011;25774;52.256;9.356;2024-03-23T06:11:36;23.98;;;5.70;;
40072;SDS011;25774;52.256;9.356;2024-03-23T06:14:01;18.93;;;7.03;;
40072;SDS011;25774;52.256;9.356;2024-03-23T06:16:28;21.07;;;5.70;;
40072;SDS011;25774;52.256;9.356;2024-03-23T06:18:53;19.35;;;5.53;;
40072;SDS011;25774;52.256;9.356;2024-03-23T06:21:20;24.55;;;6.25;;
40072;SDS011;25774;52.256;9.356;2024-03-23T06:23:45;25.10;;;6.67;;
40072;SDS011;25774;52.256;9.356;2024-03-23T06:26:16;20.02;;;6.07;;
40072;SDS011;25774;52.256;9.356;2024-03-23T06:28:41;20.52;;;5.47;;
40072;SDS011;25774;52.256;9.356;2024-03-23T06:31:10;20.17;;;6.73;;
40072;SDS011;25774;52.256;9.356;2024-03-23T06:33:35;22.00;;;6.55;;
40072;SDS011;25774;52.256;9.356;2024-03-23T06:36:00;20.37;;;7.53;;
40072;SDS011;25774;52.256;9.356;2024-03-23T06:38:28;25.15;;;8.85;;
40072;SDS011;25774;52.256;9.356;2024-03-23T06:40:53;34.85;;;9.13;;
40072;SDS011;25774;52.256;9.356;2024-03-23T06:43:20;34.53;;;8.90;;
40072;SDS011;25774;52.256;9.356;2024-03-23T06:45:55;21.70;;;7.78;;
40072;SDS011;25774;52.256;9.356;2024-03-23T06:48:20;31.63;;;8.18;;
40072;SDS011;25774;52.256;9.356;2024-03-23T06:50:47;28.97;;;8.77;;
40072;SDS011;25774;52.256;9.356;2024-03-23T06:53:13;34.40;;;9.25;;
40072;SDS011;25774;52.256;9.356;2024-03-23T06:55:39;39.00;;;10.65;;
40072;SDS011;25774;52.256;9.356;2024-03-23T06:58:04;34.90;;;11.20;;
40072;SDS011;25774;52.256;9.356;2024-03-23T07:00:29;35.40;;;11.70;;
40072;SDS011;25774;52.256;9.356;2024-03-23T07:02:55;37.80;;;11.03;;
40072;SDS011;25774;52.256;9.356;2024-03-23T07:05:20;36.50;;;10.37;;
40072;SDS011;25774;52.256;9.356;2024-03-23T07:07:45;33.77;;;10.73;;
40072;SDS011;25774;52.256;9.356;2024-03-23T07:10:10;28.20;;;9.83;;
40072;SDS011;25774;52.256;9.356;2024-03-23T07:12:38;25.47;;;8.57;;
40072;SDS011;25774;52.256;9.356;2024-03-23T07:15:03;28.02;;;8.88;;
40072;SDS011;25774;52.256;9.356;2024-03-23T07:17:28;28.70;;;8.30;;
40072;SDS011;25774;52.256;9.356;2024-03-23T07:19:53;23.63;;;7.07;;
40072;SDS011;25774;52.256;9.356;2024-03-23T07:22:19;23.53;;;6.57;;
40072;SDS011;25774;52.256;9.356;2024-03-23T07:24:44;23.93;;;6.23;;
40072;SDS011;25774;52.256;9.356;2024-03-23T07:27:09;21.90;;;5.67;;
40072;SDS011;25774;52.256;9.356;2024-03-23T07:29:39;19.48;;;5.53;;
40072;SDS011;25774;52.256;9.356;2024-03-23T07:32:04;22.65;;;5.93;;
40072;SDS011;25774;52.256;9.356;2024-03-23T07:34:30;19.90;;;5.93;;
40072;SDS011;25774;52.256;9.356;2024-03-23T07:36:55;22.37;;;6.30;;
40072;SDS011;25774;52.256;9.356;2024-03-23T07:39:20;32.63;;;6.70;;
40072;SDS011;25774;52.256;9.356;2024-03-23T07:41:46;23.83;;;6.83;;
40072;SDS011;25774;52.256;9.356;2024-03-23T07:44:11;27.97;;;7.40;;
40072;SDS011;25774;52.256;9.356;2024-03-23T07:46:36;21.37;;;7.33;;
40072;SDS011;25774;52.256;9.356;2024-03-23T07:49:04;27.80;;;6.60;;
40072;SDS011;25774;52.256;9.356;2024-03-23T07:51:30;27.05;;;7.15;;
40072;SDS011;25774;52.256;9.356;2024-03-23T07:53:55;29.42;;;6.95;;
40072;SDS011;25774;52.256;9.356;2024-03-23T07:56:20;21.83;;;6.70;;
40072;SDS011;25774;52.256;9.356;2024-03-23T07:58:46;27.63;;;6.88;;
40072;SDS011;25774;52.256;9.356;2024-03-23T08:01:16;25.80;;;7.10;;
40072;SDS011;25774;52.256;9.356;2024-03-23T08:03:43;27.88;;;7.82;;
40072;SDS011;25774;52.256;9.356;2024-03-23T08:06:09;23.13;;;7.25;;
40072;SDS011;25774;52.256;9.356;2024-03-23T08:08:35;24.40;;;6.90;;
40072;SDS011;25774;52.256;9.356;2024-03-23T08:11:00;25.92;;;9.50;;
40072;SDS011;25774;52.256;9.356;2024-03-23T08:13:26;21.53;;;7.97;;
40072;SDS011;25774;52.256;9.356;2024-03-23T08:15:51;22.08;;;6.75;;
40072;SDS011;25774;52.256;9.356;2024-03-23T08:18:17;25.13;;;7.73;;
40072;SDS011;25774;52.256;9.356;2024-03-23T08:20:42;19.33;;;6.20;;
40072;SDS011;25774;52.256;9.356;2024-03-23T08:23:08;25.10;;;6.10;;
40072;SDS011;25774;52.256;9.356;2024-03-23T08:28:00;19.67;;;6.93;;
40072;SDS011;25774;52.256;9.356;2024-03-23T08:30:25;22.38;;;7.10;;
40072;SDS011;25774;52.256;9.356;2024-03-23T08:32:51;27.73;;;6.77;;
40072;SDS011;25774;52.256;9.356;2024-03-23T08:35:16;24.33;;;6.22;;
40072;SDS011;25774;52.256;9.356;2024-03-23T08:37:45;26.87;;;5.57;;
40072;SDS011;25774;52.256;9.356;2024-03-23T08:40:10;27.70;;;7.07;;
40072;SDS011;25774;52.256;9.356;2024-03-23T08:42:35;22.47;;;5.83;;
40072;SDS011;25774;52.256;9.356;2024-03-23T08:45:01;18.37;;;6.27;;
40072;SDS011;25774;52.256;9.356;2024-03-23T08:47:26;24.43;;;6.70;;
40072;SDS011;25774;52.256;9.356;2024-03-23T08:49:51;25.90;;;8.07;;
40072;SDS011;25774;52.256;9.356;2024-03-23T08:52:17;21.80;;;5.50;;
40072;SDS011;25774;52.256;9.356;2024-03-23T08:54:43;23.35;;;5.15;;
40072;SDS011;25774;52.256;9.356;2024-03-23T08:57:08;23.00;;;5.67;;
40072;SDS011;25774;52.256;9.356;2024-03-23T08:59:33;16.40;;;5.07;;
40072;SDS011;25774;52.256;9.356;2024-03-23T09:01:58;20.13;;;5.07;;
40072;SDS011;25774;52.256;9.356;2024-03-23T09:04:24;25.17;;;4.90;;
40072;SDS011;25774;52.256;9.356;2024-03-23T09:06:49;23.07;;;4.63;;
40072;SDS011;25774;52.256;9.356;2024-03-23T09:09:14;14.38;;;4.18;;
40072;SDS011;25774;52.256;9.356;2024-03-23T09:11:41;18.97;;;4.40;;
40072;SDS011;25774;52.256;9.356;2024-03-23T09:14:06;18.55;;;4.32;;
40072;SDS011;25774;52.256;9.356;2024-03-23T09:16:33;23.70;;;4.53;;
40072;SDS011;25774;52.256;9.356;2024-03-23T09:18:58;15.07;;;4.00;;
40072;SDS011;25774;52.256;9.356;2024-03-23T09:21:23;20.23;;;4.00;;
40072;SDS011;25774;52.256;9.356;2024-03-23T09:23:48;23.43;;;3.80;;
40072;SDS011;25774;52.256;9.356;2024-03-23T09:26:14;22.27;;;4.10;;
40072;SDS011;25774;52.256;9.356;2024-03-23T09:28:39;25.73;;;4.70;;
40072;SDS011;25774;52.256;9.356;2024-03-23T09:31:06;15.67;;;3.40;;
40072;SDS011;25774;52.256;9.356;2024-03-23T09:33:32;12.23;;;4.28;;
40072;SDS011;25774;52.256;9.356;2024-03-23T09:35:57;18.67;;;4.20;;
40072;SDS011;25774;52.256;9.356;2024-03-23T09:38:23;17.27;;;4.10;;
40072;SDS011;25774;52.256;9.356;2024-03-23T09:40:49;14.98;;;3.45;;
40072;SDS011;25774;52.256;9.356;2024-03-23T09:43:19;11.00;;;2.85;;
40072;SDS011;25774;52.256;9.356;2024-03-23T09:45:44;13.48;;;2.70;;
40072;SDS011;25774;52.256;9.356;2024-03-23T09:48:10;13.27;;;3.13;;
40072;SDS011;25774;52.256;9.356;2024-03-23T09:50:37;14.63;;;3.57;;
40072;SDS011;25774;52.256;9.356;2024-03-23T09:53:03;14.75;;;2.90;;
40072;SDS011;25774;52.256;9.356;2024-03-23T09:55:28;12.60;;;3.07;;
40072;SDS011;25774;52.256;9.356;2024-03-23T09:57:53;21.43;;;3.53;;
40072;SDS011;25774;52.256;9.356;2024-03-23T10:00:18;21.80;;;3.70;;
40072;SDS011;25774;52.256;9.356;2024-03-23T10:02:43;14.30;;;3.87;;
40072;SDS011;25774;52.256;9.356;2024-03-23T10:05:21;9.73;;;3.23;;
40072;SDS011;25774;52.256;9.356;2024-03-23T10:07:48;11.18;;;3.08;;
40072;SDS011;25774;52.256;9.356;2024-03-23T10:10:13;15.50;;;2.92;;
40072;SDS011;25774;52.256;9.356;2024-03-23T10:12:43;17.63;;;3.10;;
40072;SDS011;25774;52.256;9.356;2024-03-23T10:15:15;11.35;;;3.50;;
40072;SDS011;25774;52.256;9.356;2024-03-23T10:17:41;13.65;;;3.55;;
40072;SDS011;25774;52.256;9.356;2024-03-23T10:20:09;13.88;;;2.90;;
40072;SDS011;25774;52.256;9.356;2024-03-23T10:22:36;12.35;;;3.13;;
40072;SDS011;25774;52.256;9.356;2024-03-23T10:25:08;13.02;;;3.08;;
40072;SDS011;25774;52.256;9.356;2024-03-23T10:27:34;9.65;;;3.00;;
40072;SDS011;25774;52.256;9.356;2024-03-23T10:30:07;15.37;;;3.70;;
40072;SDS011;25774;52.256;9.356;2024-03-23T10:32:32;11.00;;;3.88;;
40072;SDS011;25774;52.256;9.356;2024-03-23T10:35:06;15.90;;;3.87;;
40072;SDS011;25774;52.256;9.356;2024-03-23T10:37:38;13.38;;;3.28;;
40072;SDS011;25774;52.256;9.356;2024-03-23T10:40:03;13.60;;;3.63;;
40072;SDS011;25774;52.256;9.356;2024-03-23T10:42:29;17.67;;;5.05;;
40072;SDS011;25774;52.256;9.356;2024-03-23T10:44:55;16.48;;;3.50;;
40072;SDS011;25774;52.256;9.356;2024-03-23T10:47:21;10.60;;;3.20;;
40072;SDS011;25774;52.256;9.356;2024-03-23T10:49:46;12.10;;;3.50;;
40072;SDS011;25774;52.256;9.356;2024-03-23T10:52:13;13.43;;;3.22;;
40072;SDS011;25774;52.256;9.356;2024-03-23T10:54:38;7.97;;;3.10;;
40072;SDS011;25774;52.256;9.356;2024-03-23T10:59:32;10.10;;;2.38;;
40072;SDS011;25774;52.256;9.356;2024-03-23T11:01:59;9.80;;;2.83;;
40072;SDS011;25774;52.256;9.356;2024-03-23T11:04:37;9.13;;;2.50;;
40072;SDS011;25774;52.256;9.356;2024-03-23T11:09:53;13.80;;;2.78;;
40072;SDS011;25774;52.256;9.356;2024-03-23T11:14:50;13.13;;;3.00;;
40072;SDS011;25774;52.256;9.356;2024-03-23T11:17:19;7.28;;;2.38;;
40072;SDS011;25774;52.256;9.356;2024-03-23T11:19:46;11.00;;;2.92;;
40072;SDS011;25774;52.256;9.356;2024-03-23T11:22:17;8.48;;;2.83;;
40072;SDS011;25774;52.256;9.356;2024-03-23T11:25:23;14.02;;;3.10;;
40072;SDS011;25774;52.256;9.356;2024-03-23T11:27:51;10.82;;;2.92;;
40072;SDS011;25774;52.256;9.356;2024-03-23T11:30:18;10.90;;;2.30;;
40072;SDS011;25774;52.256;9.356;2024-03-23T11:32:44;13.75;;;2.90;;
40072;SDS011;25774;52.256;9.356;2024-03-23T11:37:37;11.95;;;2.28;;
40072;SDS011;25774;52.256;9.356;2024-03-23T11:40:20;6.72;;;1.45;;
40072;SDS011;25774;52.256;9.356;2024-03-23T11:42:46;12.45;;;2.53;;
40072;SDS011;25774;52.256;9.356;2024-03-23T11:45:11;9.97;;;2.40;;
40072;SDS011;25774;52.256;9.356;2024-03-23T11:47:37;6.00;;;2.17;;
40072;SDS011;25774;52.256;9.356;2024-03-23T11:50:02;5.90;;;1.57;;
40072;SDS011;25774;52.256;9.356;2024-03-23T11:52:28;6.97;;;1.90;;
40072;SDS011;25774;52.256;9.356;2024-03-23T11:55:05;6.88;;;1.90;;
40072;SDS011;25774;52.256;9.356;2024-03-23T11:57:32;5.47;;;1.77;;
40072;SDS011;25774;52.256;9.356;2024-03-23T11:59:57;9.97;;;2.13;;
40072;SDS011;25774;52.256;9.356;2024-03-23T12:02:23;9.07;;;2.03;;
40072;SDS011;25774;52.256;9.356;2024-03-23T12:04:49;8.53;;;2.23;;
40072;SDS011;25774;52.256;9.356;2024-03-23T12:09:40;9.77;;;2.37;;
40072;SDS011;25774;52.256;9.356;2024-03-23T12:17:14;10.95;;;2.60;;
40072;SDS011;25774;52.256;9.356;2024-03-23T12:19:40;9.35;;;2.58;;
40072;SDS011;25774;52.256;9.356;2024-03-23T12:22:08;9.15;;;1.80;;
40072;SDS011;25774;52.256;9.356;2024-03-23T12:24:33;8.05;;;1.70;;
40072;SDS011;25774;52.256;9.356;2024-03-23T12:27:00;5.32;;;1.20;;
40072;SDS011;25774;52.256;9.356;2024-03-23T12:29:27;3.15;;;1.13;;
40072;SDS011;25774;52.256;9.356;2024-03-23T12:31:53;2.55;;;1.20;;
40072;SDS011;25774;52.256;9.356;2024-03-23T12:34:18;8.00;;;0.97;;
40072;SDS011;25774;52.256;9.356;2024-03-23T12:36:43;4.57;;;0.97;;
40072;SDS011;25774;52.256;9.356;2024-03-23T12:39:09;8.67;;;1.40;;
40072;SDS011;25774;52.256;9.356;2024-03-23T12:41:34;3.40;;;0.80;;
40072;SDS011;25774;52.256;9.356;2024-03-23T12:43:59;2.17;;;0.70;;
40072;SDS011;25774;52.256;9.356;2024-03-23T12:46:24;2.80;;;0.83;;
40072;SDS011;25774;52.256;9.356;2024-03-23T12:48:49;4.23;;;1.10;;
40072;SDS011;25774;52.256;9.356;2024-03-23T12:51:15;2.70;;;0.80;;
40072;SDS011;25774;52.256;9.356;2024-03-23T12:53:41;3.73;;;1.30;;
40072;SDS011;25774;52.256;9.356;2024-03-23T12:56:06;4.25;;;1.75;;
40072;SDS011;25774;52.256;9.356;2024-03-23T12:58:32;7.63;;;1.30;;
40072;SDS011;25774;52.256;9.356;2024-03-23T13:00:58;6.67;;;2.00;;
40072;SDS011;25774;52.256;9.356;2024-03-23T13:03:23;4.07;;;1.20;;
40072;SDS011;25774;52.256;9.356;2024-03-23T13:05:51;4.43;;;1.23;;
40072;SDS011;25774;52.256;9.356;2024-03-23T13:08:17;4.22;;;1.08;;
40072;SDS011;25774;52.256;9.356;2024-03-23T13:10:42;5.53;;;1.13;;
40072;SDS011;25774;52.256;9.356;2024-03-23T13:13:08;2.92;;;1.00;;
40072;SDS011;25774;52.256;9.356;2024-03-23T13:15:34;6.43;;;1.20;;
40072;SDS011;25774;52.256;9.356;2024-03-23T13:17:59;4.75;;;1.33;;
40072;SDS011;25774;52.256;9.356;2024-03-23T13:20:24;4.77;;;1.10;;
40072;SDS011;25774;52.256;9.356;2024-03-23T13:22:57;4.70;;;1.00;;
40072;SDS011;25774;52.256;9.356;2024-03-23T13:25:23;3.55;;;0.90;;
40072;SDS011;25774;52.256;9.356;2024-03-23T13:27:48;5.22;;;1.08;;
40072;SDS011;25774;52.256;9.356;2024-03-23T13:30:14;4.43;;;1.30;;
40072;SDS011;25774;52.256;9.356;2024-03-23T13:32:39;7.57;;;1.50;;
40072;SDS011;25774;52.256;9.356;2024-03-23T13:35:04;3.63;;;1.13;;
40072;SDS011;25774;52.256;9.356;2024-03-23T13:37:31;14.85;;;1.50;;
40072;SDS011;25774;52.256;9.356;2024-03-23T13:39:56;8.87;;;1.50;;
40072;SDS011;25774;52.256;9.356;2024-03-23T13:42:22;7.50;;;1.57;;
40072;SDS011;25774;52.256;9.356;2024-03-23T13:44:51;5.38;;;1.20;;
40072;SDS011;25774;52.256;9.356;2024-03-23T13:47:16;7.25;;;1.60;;
40072;SDS011;25774;52.256;9.356;2024-03-23T13:49:42;5.13;;;1.50;;
40072;SDS011;25774;52.256;9.356;2024-03-23T13:52:07;7.03;;;1.70;;
40072;SDS011;25774;52.256;9.356;2024-03-23T13:54:33;9.15;;;1.80;;
40072;SDS011;25774;52.256;9.356;2024-03-23T13:56:58;6.97;;;1.37;;
40072;SDS011;25774;52.256;9.356;2024-03-23T13:59:23;6.10;;;1.90;;
40072;SDS011;25774;52.256;9.356;2024-03-23T14:01:49;4.37;;;1.27;;
40072;SDS011;25774;52.256;9.356;2024-03-23T14:04:15;5.88;;;1.42;;
40072;SDS011;25774;52.256;9.356;2024-03-23T14:06:48;4.20;;;0.65;;
40072;SDS011;25774;52.256;9.356;2024-03-23T14:09:14;1.13;;;0.50;;
40072;SDS011;25774;52.256;9.356;2024-03-23T14:11:40;6.03;;;1.20;;
40072;SDS011;25774;52.256;9.356;2024-03-23T14:14:07;3.25;;;0.77;;
40072;SDS011;25774;52.256;9.356;2024-03-23T14:16:33;5.60;;;0.45;;
40072;SDS011;25774;52.256;9.356;2024-03-23T14:18:59;2.10;;;0.50;;
40072;SDS011;25774;52.256;9.356;2024-03-23T14:23:52;0.75;;;0.40;;
40072;SDS011;25774;52.256;9.356;2024-03-23T14:26:18;1.65;;;0.40;;
40072;SDS011;25774;52.256;9.356;2024-03-23T14:28:43;2.07;;;0.40;;
40072;SDS011;25774;52.256;9.356;2024-03-23T14:31:10;0.93;;;0.30;;
40072;SDS011;25774;52.256;9.356;2024-03-23T14:36:02;5.10;;;0.30;;
40072;SDS011;25774;52.256;9.356;2024-03-23T14:38:28;4.17;;;0.50;;
40072;SDS011;25774;52.256;9.356;2024-03-23T14:41:04;1.53;;;0.60;;
40072;SDS011;25774;52.256;9.356;2024-03-23T14:43:29;1.10;;;0.30;;
40072;SDS011;25774;52.256;9.356;2024-03-23T14:48:33;2.42;;;0.60;;
40072;SDS011;25774;52.256;9.356;2024-03-23T14:51:00;2.47;;;0.80;;
40072;SDS011;25774;52.256;9.356;2024-03-23T14:53:25;6.18;;;0.60;;
40072;SDS011;25774;52.256;9.356;2024-03-23T14:58:17;4.72;;;0.80;;
40072;SDS011;25774;52.256;9.356;2024-03-23T15:00:42;4.40;;;1.10;;
40072;SDS011;25774;52.256;9.356;2024-03-23T15:03:08;4.77;;;1.40;;
40072;SDS011;25774;52.256;9.356;2024-03-23T15:05:34;3.97;;;1.23;;
40072;SDS011;25774;52.256;9.356;2024-03-23T15:07:59;6.60;;;1.43;;
40072;SDS011;25774;52.256;9.356;2024-03-23T15:10:25;2.27;;;0.90;;
40072;SDS011;25774;52.256;9.356;2024-03-23T15:12:50;8.30;;;1.33;;
40072;SDS011;25774;52.256;9.356;2024-03-23T15:15:16;5.20;;;1.30;;
40072;SDS011;25774;52.256;9.356;2024-03-23T15:17:41;7.77;;;1.30;;
40072;SDS011;25774;52.256;9.356;2024-03-23T15:20:09;2.42;;;0.80;;
40072;SDS011;25774;52.256;9.356;2024-03-23T15:22:36;6.55;;;1.33;;
40072;SDS011;25774;52.256;9.356;2024-03-23T15:25:01;8.33;;;1.23;;
40072;SDS011;25774;52.256;9.356;2024-03-23T15:27:27;3.50;;;1.00;;
40072;SDS011;25774;52.256;9.356;2024-03-23T15:29:52;2.10;;;0.60;;
40072;SDS011;25774;52.256;9.356;2024-03-23T15:32:18;0.83;;;0.50;;
40072;SDS011;25774;52.256;9.356;2024-03-23T15:34:43;3.47;;;0.63;;
40072;SDS011;25774;52.256;9.356;2024-03-23T15:37:08;2.50;;;0.80;;
40072;SDS011;25774;52.256;9.356;2024-03-23T15:39:34;4.10;;;0.50;;
40072;SDS011;25774;52.256;9.356;2024-03-23T15:42:01;2.00;;;0.63;;
40072;SDS011;25774;52.256;9.356;2024-03-23T15:44:27;6.10;;;1.27;;
40072;SDS011;25774;52.256;9.356;2024-03-23T15:46:54;4.00;;;0.73;;
40072;SDS011;25774;52.256;9.356;2024-03-23T15:49:20;3.80;;;0.73;;
40072;SDS011;25774;52.256;9.356;2024-03-23T15:51:46;4.30;;;0.80;;
40072;SDS011;25774;52.256;9.356;2024-03-23T15:54:11;4.43;;;0.80;;
40072;SDS011;25774;52.256;9.356;2024-03-23T15:56:37;4.13;;;0.93;;
40072;SDS011;25774;52.256;9.356;2024-03-23T15:59:03;6.15;;;1.20;;
40072;SDS011;25774;52.256;9.356;2024-03-23T16:01:32;8.18;;;1.25;;
40072;SDS011;25774;52.256;9.356;2024-03-23T16:03:59;5.63;;;0.90;;
40072;SDS011;25774;52.256;9.356;2024-03-23T16:06:24;3.00;;;0.80;;
40072;SDS011;25774;52.256;9.356;2024-03-23T16:08:50;4.93;;;1.20;;